sensor_id;sensor_type;location;lat;lon;timestamp;P1;durP1;ratioP1;P2;durP2;ratioP2
6215;SDS011;3141;49.234;9.326;2024-01-27T00:00:41;9.97;;;5.63;;
6215;SDS011;3141;49.234;9.326;2024-01-27T00:01:24;8.60;;;5.10;;
6215;SDS011;3141;49.234;9.326;2024-01-27T00:02:06;10.77;;;5.87;;
6215;SDS011;3141;49.234;9.326;2024-01-27T00:02:48;11.43;;;5.60;;
6215;SDS011;3141;49.234;9.326;2024-01-27T00:03:31;10.40;;;5.63;;
6215;SDS011;3141;49.234;9.326;2024-01-27T00:04:13;8.23;;;5.30;;
6215;SDS011;3141;49.234;9.326;2024-01-27T00:04:55;8.97;;;5.37;;
6215;SDS011;3141;49.234;9.326;2024-01-27T00:05:37;11.07;;;5.80;;
6215;SDS011;3141;49.234;9.326;2024-01-27T00:06:20;16.80;;;5.63;;
6215;SDS011;3141;49.234;9.326;2024-01-27T00:07:02;10.67;;;5.80;;
6215;SDS011;3141;49.234;9.326;2024-01-27T00:07:44;14.43;;;6.30;;
6215;SDS011;3141;49.234;9.326;2024-01-27T00:08:27;12.37;;;5.80;;
6215;SDS011;3141;49.234;9.326;2024-01-27T00:09:09;16.40;;;5.53;;
6215;SDS011;3141;49.234;9.326;2024-01-27T00:09:51;13.67;;;6.07;;
6215;SDS011;3141;49.234;9.326;2024-01-27T00:10:34;10.40;;;5.57;;
6215;SDS011;3141;49.234;9.326;2024-01-27T00:11:16;10.83;;;5.87;;
6215;SDS011;3141;49.234;9.326;2024-01-27T00:11:58;17.03;;;5.50;;
6215;SDS011;3141;49.234;9.326;2024-01-27T00:12:41;13.17;;;6.10;;
6215;SDS011;3141;49.234;9.326;2024-01-27T00:13:23;13.20;;;5.93;;
6215;SDS011;3141;49.234;9.326;2024-01-27T00:14:05;13.50;;;5.70;;
6215;SDS011;3141;49.234;9.326;2024-01-27T00:14:48;10.23;;;5.87;;
6215;SDS011;3141;49.234;9.326;2024-01-27T00:15:30;9.63;;;6.10;;
6215;SDS011;3141;49.234;9.326;2024-01-27T00:16:12;12.03;;;5.93;;
6215;SDS011;3141;49.234;9.326;2024-01-27T00:16:54;10.80;;;6.60;;
6215;SDS011;3141;49.234;9.326;2024-01-27T00:17:37;8.67;;;6.10;;
6215;SDS011;3141;49.234;9.326;2024-01-27T00:18:19;11.10;;;5.97;;
6215;SDS011;3141;49.234;9.326;2024-01-27T00:19:02;13.90;;;5.97;;
6215;SDS011;3141;49.234;9.326;2024-01-27T00:19:44;11.87;;;6.03;;
6215;SDS011;3141;49.234;9.326;2024-01-27T00:20:26;9.93;;;6.27;;
6215;SDS011;3141;49.234;9.326;2024-01-27T00:21:09;13.90;;;6.60;;
6215;SDS011;3141;49.234;9.326;2024-01-27T00:21:51;13.83;;;6.23;;
6215;SDS011;3141;49.234;9.326;2024-01-27T00:22:34;12.17;;;6.27;;
6215;SDS011;3141;49.234;9.326;2024-01-27T00:23:16;14.37;;;6.20;;
6215;SDS011;3141;49.234;9.326;2024-01-27T00:23:58;11.37;;;6.20;;
6215;SDS011;3141;49.234;9.326;2024-01-27T00:24:43;12.85;;;6.45;;
6215;SDS011;3141;49.234;9.326;2024-01-27T00:25:25;17.27;;;6.77;;
6215;SDS011;3141;49.234;9.326;2024-01-27T00:26:07;12.93;;;6.37;;
6215;SDS011;3141;49.234;9.326;2024-01-27T00:26:50;11.17;;;6.33;;
6215;SDS011;3141;49.234;9.326;2024-01-27T00:27:32;10.93;;;6.03;;
6215;SDS011;3141;49.234;9.326;2024-01-27T00:28:14;14.40;;;7.80;;
6215;SDS011;3141;49.234;9.326;2024-01-27T00:28:57;10.17;;;5.90;;
6215;SDS011;3141;49.234;9.326;2024-01-27T00:29:39;12.57;;;6.70;;
6215;SDS011;3141;49.234;9.326;2024-01-27T00:30:21;14.70;;;6.40;;
6215;SDS011;3141;49.234;9.326;2024-01-27T00:31:04;9.87;;;6.23;;
6215;SDS011;3141;49.234;9.326;2024-01-27T00:31:46;14.43;;;6.47;;
6215;SDS011;3141;49.234;9.326;2024-01-27T00:32:28;10.87;;;6.30;;
6215;SDS011;3141;49.234;9.326;2024-01-27T00:33:11;16.47;;;6.50;;
6215;SDS011;3141;49.234;9.326;2024-01-27T00:33:53;12.23;;;5.83;;
6215;SDS011;3141;49.234;9.326;2024-01-27T00:34:35;15.73;;;7.30;;
6215;SDS011;3141;49.234;9.326;2024-01-27T00:35:18;15.63;;;6.03;;
6215;SDS011;3141;49.234;9.326;2024-01-27T00:36:00;9.63;;;5.40;;
6215;SDS011;3141;49.234;9.326;2024-01-27T00:36:42;11.93;;;5.63;;
6215;SDS011;3141;49.234;9.326;2024-01-27T00:37:30;14.27;;;6.47;;
6215;SDS011;3141;49.234;9.326;2024-01-27T00:38:12;10.77;;;6.10;;
6215;SDS011;3141;49.234;9.326;2024-01-27T00:38:55;10.43;;;5.73;;
6215;SDS011;3141;49.234;9.326;2024-01-27T00:39:37;10.23;;;5.80;;
6215;SDS011;3141;49.234;9.326;2024-01-27T00:40:19;9.00;;;5.53;;
6215;SDS011;3141;49.234;9.326;2024-01-27T00:41:02;13.20;;;6.33;;
6215;SDS011;3141;49.234;9.326;2024-01-27T00:41:44;13.33;;;5.93;;
6215;SDS011;3141;49.234;9.326;2024-01-27T00:42:26;9.17;;;6.37;;
6215;SDS011;3141;49.234;9.326;2024-01-27T00:43:09;12.27;;;5.87;;
6215;SDS011;3141;49.234;9.326;2024-01-27T00:43:51;11.93;;;6.43;;
6215;SDS011;3141;49.234;9.326;2024-01-27T00:44:33;17.47;;;7.37;;
6215;SDS011;3141;49.234;9.326;2024-01-27T00:45:15;11.20;;;6.90;;
6215;SDS011;3141;49.234;9.326;2024-01-27T00:45:58;8.20;;;5.70;;
6215;SDS011;3141;49.234;9.326;2024-01-27T00:46:40;8.80;;;5.63;;
6215;SDS011;3141;49.234;9.326;2024-01-27T00:47:22;12.60;;;5.13;;
6215;SDS011;3141;49.234;9.326;2024-01-27T00:48:05;12.63;;;6.03;;
6215;SDS011;3141;49.234;9.326;2024-01-27T00:48:48;12.47;;;5.90;;
6215;SDS011;3141;49.234;9.326;2024-01-27T00:49:30;11.90;;;5.77;;
6215;SDS011;3141;49.234;9.326;2024-01-27T00:50:12;10.53;;;6.13;;
6215;SDS011;3141;49.234;9.326;2024-01-27T00:50:55;16.07;;;6.47;;
6215;SDS011;3141;49.234;9.326;2024-01-27T00:51:37;17.00;;;5.90;;
6215;SDS011;3141;49.234;9.326;2024-01-27T00:52:20;8.93;;;5.73;;
6215;SDS011;3141;49.234;9.326;2024-01-27T00:53:02;13.90;;;5.87;;
6215;SDS011;3141;49.234;9.326;2024-01-27T00:53:44;13.13;;;5.60;;
6215;SDS011;3141;49.234;9.326;2024-01-27T00:54:27;11.93;;;6.17;;
6215;SDS011;3141;49.234;9.326;2024-01-27T00:55:09;9.67;;;5.50;;
6215;SDS011;3141;49.234;9.326;2024-01-27T00:55:52;13.07;;;5.50;;
6215;SDS011;3141;49.234;9.326;2024-01-27T00:56:34;10.30;;;5.83;;
6215;SDS011;3141;49.234;9.326;2024-01-27T00:57:16;12.10;;;6.50;;
6215;SDS011;3141;49.234;9.326;2024-01-27T00:57:59;13.33;;;5.93;;
6215;SDS011;3141;49.234;9.326;2024-01-27T00:58:41;8.67;;;5.27;;
6215;SDS011;3141;49.234;9.326;2024-01-27T00:59:23;10.17;;;5.90;;
6215;SDS011;3141;49.234;9.326;2024-01-27T01:00:09;11.93;;;5.70;;
6215;SDS011;3141;49.234;9.326;2024-01-27T01:00:52;9.98;;;5.88;;
6215;SDS011;3141;49.234;9.326;2024-01-27T01:01:34;11.33;;;5.97;;
6215;SDS011;3141;49.234;9.326;2024-01-27T01:02:17;14.47;;;6.60;;
6215;SDS011;3141;49.234;9.326;2024-01-27T01:02:59;11.27;;;6.50;;
6215;SDS011;3141;49.234;9.326;2024-01-27T01:03:41;10.93;;;6.07;;
6215;SDS011;3141;49.234;9.326;2024-01-27T01:04:24;12.23;;;6.37;;
6215;SDS011;3141;49.234;9.326;2024-01-27T01:05:06;12.40;;;6.10;;
6215;SDS011;3141;49.234;9.326;2024-01-27T01:05:49;13.27;;;6.70;;
6215;SDS011;3141;49.234;9.326;2024-01-27T01:06:32;10.93;;;5.73;;
6215;SDS011;3141;49.234;9.326;2024-01-27T01:07:14;14.90;;;6.33;;
6215;SDS011;3141;49.234;9.326;2024-01-27T01:07:56;11.00;;;5.67;;
6215;SDS011;3141;49.234;9.326;2024-01-27T01:08:39;10.80;;;6.37;;
6215;SDS011;3141;49.234;9.326;2024-01-27T01:09:21;12.33;;;5.73;;
6215;SDS011;3141;49.234;9.326;2024-01-27T01:10:03;8.90;;;5.53;;
6215;SDS011;3141;49.234;9.326;2024-01-27T01:10:46;12.33;;;5.93;;
6215;SDS011;3141;49.234;9.326;2024-01-27T01:11:28;17.27;;;5.93;;
6215;SDS011;3141;49.234;9.326;2024-01-27T01:12:11;14.03;;;5.80;;
6215;SDS011;3141;49.234;9.326;2024-01-27T01:12:53;11.57;;;6.07;;
6215;SDS011;3141;49.234;9.326;2024-01-27T01:13:35;11.20;;;6.17;;
6215;SDS011;3141;49.234;9.326;2024-01-27T01:14:17;9.50;;;5.97;;
6215;SDS011;3141;49.234;9.326;2024-01-27T01:15:00;13.30;;;6.40;;
6215;SDS011;3141;49.234;9.326;2024-01-27T01:15:42;11.63;;;6.57;;
6215;SDS011;3141;49.234;9.326;2024-01-27T01:16:24;11.40;;;6.43;;
6215;SDS011;3141;49.234;9.326;2024-01-27T01:17:07;15.37;;;5.97;;
6215;SDS011;3141;49.234;9.326;2024-01-27T01:17:49;10.73;;;6.00;;
6215;SDS011;3141;49.234;9.326;2024-01-27T01:18:31;13.83;;;6.27;;
6215;SDS011;3141;49.234;9.326;2024-01-27T01:19:14;9.47;;;6.10;;
6215;SDS011;3141;49.234;9.326;2024-01-27T01:19:56;15.77;;;6.00;;
6215;SDS011;3141;49.234;9.326;2024-01-27T01:20:38;8.97;;;6.20;;
6215;SDS011;3141;49.234;9.326;2024-01-27T01:21:21;12.77;;;6.93;;
6215;SDS011;3141;49.234;9.326;2024-01-27T01:22:04;11.43;;;5.60;;
6215;SDS011;3141;49.234;9.326;2024-01-27T01:22:47;11.00;;;6.55;;
6215;SDS011;3141;49.234;9.326;2024-01-27T01:23:29;14.57;;;6.00;;
6215;SDS011;3141;49.234;9.326;2024-01-27T01:24:11;22.50;;;6.60;;
6215;SDS011;3141;49.234;9.326;2024-01-27T01:24:54;9.67;;;6.07;;
6215;SDS011;3141;49.234;9.326;2024-01-27T01:25:36;8.33;;;5.77;;
6215;SDS011;3141;49.234;9.326;2024-01-27T01:26:18;14.67;;;5.80;;
6215;SDS011;3141;49.234;9.326;2024-01-27T01:27:01;9.73;;;6.33;;
6215;SDS011;3141;49.234;9.326;2024-01-27T01:27:43;9.40;;;5.60;;
6215;SDS011;3141;49.234;9.326;2024-01-27T01:28:25;7.67;;;5.60;;
6215;SDS011;3141;49.234;9.326;2024-01-27T01:29:07;13.17;;;6.43;;
6215;SDS011;3141;49.234;9.326;2024-01-27T01:29:50;11.53;;;6.57;;
6215;SDS011;3141;49.234;9.326;2024-01-27T01:30:32;9.73;;;6.20;;
6215;SDS011;3141;49.234;9.326;2024-01-27T01:31:14;12.40;;;6.80;;
6215;SDS011;3141;49.234;9.326;2024-01-27T01:31:57;11.33;;;5.87;;
6215;SDS011;3141;49.234;9.326;2024-01-27T01:32:39;14.07;;;6.87;;
6215;SDS011;3141;49.234;9.326;2024-01-27T01:33:21;13.27;;;7.10;;
6215;SDS011;3141;49.234;9.326;2024-01-27T01:34:04;15.00;;;5.70;;
6215;SDS011;3141;49.234;9.326;2024-01-27T01:34:47;13.07;;;6.30;;
6215;SDS011;3141;49.234;9.326;2024-01-27T01:35:30;14.40;;;6.93;;
6215;SDS011;3141;49.234;9.326;2024-01-27T01:36:12;12.67;;;6.43;;
6215;SDS011;3141;49.234;9.326;2024-01-27T01:36:54;13.37;;;6.80;;
6215;SDS011;3141;49.234;9.326;2024-01-27T01:37:37;8.83;;;6.73;;
6215;SDS011;3141;49.234;9.326;2024-01-27T01:38:19;14.67;;;6.80;;
6215;SDS011;3141;49.234;9.326;2024-01-27T01:39:01;10.67;;;6.67;;
6215;SDS011;3141;49.234;9.326;2024-01-27T01:39:44;10.67;;;6.83;;
6215;SDS011;3141;49.234;9.326;2024-01-27T01:40:26;12.57;;;6.70;;
6215;SDS011;3141;49.234;9.326;2024-01-27T01:41:08;10.70;;;6.90;;
6215;SDS011;3141;49.234;9.326;2024-01-27T01:41:51;13.37;;;6.27;;
6215;SDS011;3141;49.234;9.326;2024-01-27T01:42:33;12.30;;;6.10;;
6215;SDS011;3141;49.234;9.326;2024-01-27T01:43:15;12.63;;;6.27;;
6215;SDS011;3141;49.234;9.326;2024-01-27T01:43:58;9.30;;;6.77;;
6215;SDS011;3141;49.234;9.326;2024-01-27T01:44:40;15.13;;;7.10;;
6215;SDS011;3141;49.234;9.326;2024-01-27T01:45:22;10.87;;;6.47;;
6215;SDS011;3141;49.234;9.326;2024-01-27T01:46:04;10.50;;;6.63;;
6215;SDS011;3141;49.234;9.326;2024-01-27T01:46:47;13.40;;;6.73;;
6215;SDS011;3141;49.234;9.326;2024-01-27T01:47:29;12.00;;;6.43;;
6215;SDS011;3141;49.234;9.326;2024-01-27T01:48:12;12.00;;;6.53;;
6215;SDS011;3141;49.234;9.326;2024-01-27T01:48:54;11.87;;;6.30;;
6215;SDS011;3141;49.234;9.326;2024-01-27T01:49:37;13.73;;;6.90;;
6215;SDS011;3141;49.234;9.326;2024-01-27T01:50:20;10.00;;;6.27;;
6215;SDS011;3141;49.234;9.326;2024-01-27T01:51:02;15.87;;;7.23;;
6215;SDS011;3141;49.234;9.326;2024-01-27T01:51:46;10.98;;;6.68;;
6215;SDS011;3141;49.234;9.326;2024-01-27T01:52:28;11.20;;;6.20;;
6215;SDS011;3141;49.234;9.326;2024-01-27T01:53:11;12.90;;;7.37;;
6215;SDS011;3141;49.234;9.326;2024-01-27T01:53:57;12.25;;;6.88;;
6215;SDS011;3141;49.234;9.326;2024-01-27T01:54:41;12.57;;;6.55;;
6215;SDS011;3141;49.234;9.326;2024-01-27T01:55:23;10.02;;;7.07;;
6215;SDS011;3141;49.234;9.326;2024-01-27T01:56:06;11.23;;;6.90;;
6215;SDS011;3141;49.234;9.326;2024-01-27T01:56:50;16.92;;;7.93;;
6215;SDS011;3141;49.234;9.326;2024-01-27T01:57:33;16.50;;;6.80;;
6215;SDS011;3141;49.234;9.326;2024-01-27T01:58:15;11.73;;;7.20;;
6215;SDS011;3141;49.234;9.326;2024-01-27T01:58:58;13.38;;;6.57;;
6215;SDS011;3141;49.234;9.326;2024-01-27T01:59:41;14.17;;;7.23;;
6215;SDS011;3141;49.234;9.326;2024-01-27T02:00:23;12.93;;;7.30;;
6215;SDS011;3141;49.234;9.326;2024-01-27T02:01:06;13.30;;;6.83;;
6215;SDS011;3141;49.234;9.326;2024-01-27T02:01:49;8.60;;;6.63;;
6215;SDS011;3141;49.234;9.326;2024-01-27T02:02:31;12.47;;;6.77;;
6215;SDS011;3141;49.234;9.326;2024-01-27T02:03:14;11.13;;;6.43;;
6215;SDS011;3141;49.234;9.326;2024-01-27T02:03:56;11.97;;;6.47;;
6215;SDS011;3141;49.234;9.326;2024-01-27T02:04:40;14.13;;;7.00;;
6215;SDS011;3141;49.234;9.326;2024-01-27T02:05:23;11.15;;;7.00;;
6215;SDS011;3141;49.234;9.326;2024-01-27T02:06:05;16.70;;;7.30;;
6215;SDS011;3141;49.234;9.326;2024-01-27T02:06:48;13.77;;;7.30;;
6215;SDS011;3141;49.234;9.326;2024-01-27T02:07:31;11.10;;;7.10;;
6215;SDS011;3141;49.234;9.326;2024-01-27T02:08:13;10.77;;;7.07;;
6215;SDS011;3141;49.234;9.326;2024-01-27T02:08:55;14.03;;;6.67;;
6215;SDS011;3141;49.234;9.326;2024-01-27T02:09:37;12.10;;;6.80;;
6215;SDS011;3141;49.234;9.326;2024-01-27T02:10:20;12.30;;;6.83;;
6215;SDS011;3141;49.234;9.326;2024-01-27T02:11:02;9.47;;;6.47;;
6215;SDS011;3141;49.234;9.326;2024-01-27T02:11:45;10.83;;;6.93;;
6215;SDS011;3141;49.234;9.326;2024-01-27T02:12:27;13.83;;;7.87;;
6215;SDS011;3141;49.234;9.326;2024-01-27T02:13:19;10.77;;;6.70;;
6215;SDS011;3141;49.234;9.326;2024-01-27T02:14:02;13.25;;;7.82;;
6215;SDS011;3141;49.234;9.326;2024-01-27T02:14:45;12.17;;;8.03;;
6215;SDS011;3141;49.234;9.326;2024-01-27T02:15:28;9.97;;;7.40;;
6215;SDS011;3141;49.234;9.326;2024-01-27T02:16:10;11.13;;;7.53;;
6215;SDS011;3141;49.234;9.326;2024-01-27T02:16:56;17.33;;;7.93;;
6215;SDS011;3141;49.234;9.326;2024-01-27T02:17:38;11.73;;;7.10;;
6215;SDS011;3141;49.234;9.326;2024-01-27T02:18:21;17.60;;;8.65;;
6215;SDS011;3141;49.234;9.326;2024-01-27T02:19:04;11.70;;;8.23;;
6215;SDS011;3141;49.234;9.326;2024-01-27T02:19:46;11.73;;;7.00;;
6215;SDS011;3141;49.234;9.326;2024-01-27T02:20:28;37.97;;;8.27;;
6215;SDS011;3141;49.234;9.326;2024-01-27T02:21:11;14.60;;;8.17;;
6215;SDS011;3141;49.234;9.326;2024-01-27T02:21:53;46.47;;;9.07;;
6215;SDS011;3141;49.234;9.326;2024-01-27T02:22:35;35.03;;;8.90;;
6215;SDS011;3141;49.234;9.326;2024-01-27T02:23:18;87.43;;;10.03;;
6215;SDS011;3141;49.234;9.326;2024-01-27T02:24:00;54.00;;;10.53;;
6215;SDS011;3141;49.234;9.326;2024-01-27T02:24:43;62.07;;;8.77;;
6215;SDS011;3141;49.234;9.326;2024-01-27T02:25:25;52.03;;;11.33;;
6215;SDS011;3141;49.234;9.326;2024-01-27T02:26:07;18.33;;;7.93;;
6215;SDS011;3141;49.234;9.326;2024-01-27T02:26:50;25.07;;;8.47;;
6215;SDS011;3141;49.234;9.326;2024-01-27T02:27:32;28.77;;;8.43;;
6215;SDS011;3141;49.234;9.326;2024-01-27T02:28:14;17.53;;;7.77;;
6215;SDS011;3141;49.234;9.326;2024-01-27T02:28:57;33.57;;;8.47;;
6215;SDS011;3141;49.234;9.326;2024-01-27T02:29:39;15.93;;;8.63;;
6215;SDS011;3141;49.234;9.326;2024-01-27T02:30:21;19.13;;;8.60;;
6215;SDS011;3141;49.234;9.326;2024-01-27T02:31:04;16.83;;;8.50;;
6215;SDS011;3141;49.234;9.326;2024-01-27T02:31:46;13.87;;;8.70;;
6215;SDS011;3141;49.234;9.326;2024-01-27T02:32:28;19.40;;;8.17;;
6215;SDS011;3141;49.234;9.326;2024-01-27T02:33:11;13.23;;;7.97;;
6215;SDS011;3141;49.234;9.326;2024-01-27T02:33:53;15.27;;;7.10;;
6215;SDS011;3141;49.234;9.326;2024-01-27T02:34:35;11.87;;;7.13;;
6215;SDS011;3141;49.234;9.326;2024-01-27T02:35:17;14.50;;;7.77;;
6215;SDS011;3141;49.234;9.326;2024-01-27T02:36:00;14.00;;;7.57;;
6215;SDS011;3141;49.234;9.326;2024-01-27T02:36:42;15.33;;;8.00;;
6215;SDS011;3141;49.234;9.326;2024-01-27T02:37:25;12.93;;;6.68;;
6215;SDS011;3141;49.234;9.326;2024-01-27T02:38:08;9.27;;;7.40;;
6215;SDS011;3141;49.234;9.326;2024-01-27T02:38:50;13.47;;;7.57;;
6215;SDS011;3141;49.234;9.326;2024-01-27T02:39:32;10.03;;;7.23;;
6215;SDS011;3141;49.234;9.326;2024-01-27T02:40:15;12.47;;;7.73;;
6215;SDS011;3141;49.234;9.326;2024-01-27T02:40:57;13.87;;;7.57;;
6215;SDS011;3141;49.234;9.326;2024-01-27T02:41:39;16.73;;;8.00;;
6215;SDS011;3141;49.234;9.326;2024-01-27T02:42:22;11.57;;;7.23;;
6215;SDS011;3141;49.234;9.326;2024-01-27T02:43:04;17.30;;;7.73;;
6215;SDS011;3141;49.234;9.326;2024-01-27T02:43:46;12.30;;;7.17;;
6215;SDS011;3141;49.234;9.326;2024-01-27T02:44:29;12.80;;;7.60;;
6215;SDS011;3141;49.234;9.326;2024-01-27T02:45:11;10.37;;;7.03;;
6215;SDS011;3141;49.234;9.326;2024-01-27T02:45:53;12.70;;;7.27;;
6215;SDS011;3141;49.234;9.326;2024-01-27T02:46:36;17.60;;;8.10;;
6215;SDS011;3141;49.234;9.326;2024-01-27T02:47:18;16.73;;;7.93;;
6215;SDS011;3141;49.234;9.326;2024-01-27T02:48:00;10.97;;;7.00;;
6215;SDS011;3141;49.234;9.326;2024-01-27T02:48:43;18.10;;;7.57;;
6215;SDS011;3141;49.234;9.326;2024-01-27T02:49:25;17.27;;;8.43;;
6215;SDS011;3141;49.234;9.326;2024-01-27T02:50:07;16.37;;;7.33;;
6215;SDS011;3141;49.234;9.326;2024-01-27T02:50:50;14.25;;;6.72;;
6215;SDS011;3141;49.234;9.326;2024-01-27T02:51:32;16.77;;;7.70;;
6215;SDS011;3141;49.234;9.326;2024-01-27T02:52:15;11.63;;;7.33;;
6215;SDS011;3141;49.234;9.326;2024-01-27T02:52:57;11.80;;;6.57;;
6215;SDS011;3141;49.234;9.326;2024-01-27T02:53:40;13.60;;;7.00;;
6215;SDS011;3141;49.234;9.326;2024-01-27T02:54:22;16.87;;;7.50;;
6215;SDS011;3141;49.234;9.326;2024-01-27T02:55:05;12.67;;;6.80;;
6215;SDS011;3141;49.234;9.326;2024-01-27T02:55:47;14.57;;;6.78;;
6215;SDS011;3141;49.234;9.326;2024-01-27T02:56:30;14.17;;;6.93;;
6215;SDS011;3141;49.234;9.326;2024-01-27T02:57:12;19.60;;;7.00;;
6215;SDS011;3141;49.234;9.326;2024-01-27T02:57:55;16.53;;;7.63;;
6215;SDS011;3141;49.234;9.326;2024-01-27T02:58:37;19.93;;;7.03;;
6215;SDS011;3141;49.234;9.326;2024-01-27T02:59:19;14.30;;;7.10;;
6215;SDS011;3141;49.234;9.326;2024-01-27T03:00:02;18.80;;;8.17;;
6215;SDS011;3141;49.234;9.326;2024-01-27T03:00:45;11.68;;;6.72;;
6215;SDS011;3141;49.234;9.326;2024-01-27T03:01:27;14.87;;;6.73;;
6215;SDS011;3141;49.234;9.326;2024-01-27T03:02:09;14.07;;;7.17;;
6215;SDS011;3141;49.234;9.326;2024-01-27T03:02:51;13.27;;;7.50;;
6215;SDS011;3141;49.234;9.326;2024-01-27T03:03:34;17.27;;;7.73;;
6215;SDS011;3141;49.234;9.326;2024-01-27T03:04:16;16.67;;;8.17;;
6215;SDS011;3141;49.234;9.326;2024-01-27T03:04:58;13.77;;;8.93;;
6215;SDS011;3141;49.234;9.326;2024-01-27T03:05:41;18.48;;;7.82;;
6215;SDS011;3141;49.234;9.326;2024-01-27T03:06:24;18.37;;;7.73;;
6215;SDS011;3141;49.234;9.326;2024-01-27T03:07:06;11.10;;;7.10;;
6215;SDS011;3141;49.234;9.326;2024-01-27T03:07:48;15.00;;;7.87;;
6215;SDS011;3141;49.234;9.326;2024-01-27T03:08:31;12.83;;;7.03;;
6215;SDS011;3141;49.234;9.326;2024-01-27T03:09:14;18.40;;;7.83;;
6215;SDS011;3141;49.234;9.326;2024-01-27T03:09:56;17.23;;;7.83;;
6215;SDS011;3141;49.234;9.326;2024-01-27T03:10:38;15.53;;;7.23;;
6215;SDS011;3141;49.234;9.326;2024-01-27T03:11:21;15.07;;;7.73;;
6215;SDS011;3141;49.234;9.326;2024-01-27T03:12:03;13.90;;;7.50;;
6215;SDS011;3141;49.234;9.326;2024-01-27T03:12:46;20.70;;;6.93;;
6215;SDS011;3141;49.234;9.326;2024-01-27T03:13:28;15.67;;;7.30;;
6215;SDS011;3141;49.234;9.326;2024-01-27T03:14:10;13.63;;;7.03;;
6215;SDS011;3141;49.234;9.326;2024-01-27T03:14:53;12.47;;;7.33;;
6215;SDS011;3141;49.234;9.326;2024-01-27T03:15:36;12.05;;;7.22;;
6215;SDS011;3141;49.234;9.326;2024-01-27T03:16:19;10.93;;;6.70;;
6215;SDS011;3141;49.234;9.326;2024-01-27T03:17:02;14.33;;;7.20;;
6215;SDS011;3141;49.234;9.326;2024-01-27T03:17:44;19.40;;;7.47;;
6215;SDS011;3141;49.234;9.326;2024-01-27T03:18:26;13.87;;;6.90;;
6215;SDS011;3141;49.234;9.326;2024-01-27T03:19:09;17.63;;;7.83;;
6215;SDS011;3141;49.234;9.326;2024-01-27T03:19:51;11.70;;;6.97;;
6215;SDS011;3141;49.234;9.326;2024-01-27T03:20:33;9.00;;;7.10;;
6215;SDS011;3141;49.234;9.326;2024-01-27T03:21:16;14.73;;;7.13;;
6215;SDS011;3141;49.234;9.326;2024-01-27T03:21:58;13.03;;;6.30;;
6215;SDS011;3141;49.234;9.326;2024-01-27T03:22:40;19.00;;;7.17;;
6215;SDS011;3141;49.234;9.326;2024-01-27T03:23:23;13.70;;;7.07;;
6215;SDS011;3141;49.234;9.326;2024-01-27T03:24:06;17.47;;;7.30;;
6215;SDS011;3141;49.234;9.326;2024-01-27T03:24:48;18.10;;;7.63;;
6215;SDS011;3141;49.234;9.326;2024-01-27T03:25:32;13.43;;;7.60;;
6215;SDS011;3141;49.234;9.326;2024-01-27T03:26:14;17.50;;;7.10;;
6215;SDS011;3141;49.234;9.326;2024-01-27T03:26:56;11.77;;;6.57;;
6215;SDS011;3141;49.234;9.326;2024-01-27T03:27:39;19.63;;;7.90;;
6215;SDS011;3141;49.234;9.326;2024-01-27T03:28:21;13.13;;;7.50;;
6215;SDS011;3141;49.234;9.326;2024-01-27T03:29:03;10.07;;;7.13;;
6215;SDS011;3141;49.234;9.326;2024-01-27T03:29:46;10.90;;;6.33;;
6215;SDS011;3141;49.234;9.326;2024-01-27T03:30:28;12.90;;;7.17;;
6215;SDS011;3141;49.234;9.326;2024-01-27T03:31:10;13.87;;;7.07;;
6215;SDS011;3141;49.234;9.326;2024-01-27T03:31:53;12.47;;;6.97;;
6215;SDS011;3141;49.234;9.326;2024-01-27T03:32:35;12.63;;;7.20;;
6215;SDS011;3141;49.234;9.326;2024-01-27T03:33:17;11.67;;;6.47;;
6215;SDS011;3141;49.234;9.326;2024-01-27T03:34:00;15.30;;;7.57;;
6215;SDS011;3141;49.234;9.326;2024-01-27T03:34:43;12.98;;;7.25;;
6215;SDS011;3141;49.234;9.326;2024-01-27T03:35:27;12.85;;;6.40;;
6215;SDS011;3141;49.234;9.326;2024-01-27T03:36:10;13.67;;;7.37;;
6215;SDS011;3141;49.234;9.326;2024-01-27T03:36:53;13.57;;;7.32;;
6215;SDS011;3141;49.234;9.326;2024-01-27T03:37:35;19.40;;;7.97;;
6215;SDS011;3141;49.234;9.326;2024-01-27T03:38:18;24.20;;;7.47;;
6215;SDS011;3141;49.234;9.326;2024-01-27T03:39:00;13.40;;;8.33;;
6215;SDS011;3141;49.234;9.326;2024-01-27T03:39:42;20.00;;;8.57;;
6215;SDS011;3141;49.234;9.326;2024-01-27T03:40:25;13.33;;;7.00;;
6215;SDS011;3141;49.234;9.326;2024-01-27T03:41:07;17.40;;;8.77;;
6215;SDS011;3141;49.234;9.326;2024-01-27T03:41:49;18.63;;;6.27;;
6215;SDS011;3141;49.234;9.326;2024-01-27T03:42:32;11.17;;;6.60;;
6215;SDS011;3141;49.234;9.326;2024-01-27T03:43:14;16.97;;;7.20;;
6215;SDS011;3141;49.234;9.326;2024-01-27T03:43:56;17.43;;;7.33;;
6215;SDS011;3141;49.234;9.326;2024-01-27T03:44:39;11.27;;;6.83;;
6215;SDS011;3141;49.234;9.326;2024-01-27T03:45:21;13.27;;;6.67;;
6215;SDS011;3141;49.234;9.326;2024-01-27T03:46:03;14.03;;;6.73;;
6215;SDS011;3141;49.234;9.326;2024-01-27T03:46:46;14.70;;;7.30;;
6215;SDS011;3141;49.234;9.326;2024-01-27T03:47:30;15.52;;;6.85;;
6215;SDS011;3141;49.234;9.326;2024-01-27T03:48:12;13.07;;;7.23;;
6215;SDS011;3141;49.234;9.326;2024-01-27T03:48:54;14.13;;;7.00;;
6215;SDS011;3141;49.234;9.326;2024-01-27T03:49:37;10.77;;;6.97;;
6215;SDS011;3141;49.234;9.326;2024-01-27T03:50:19;10.27;;;6.40;;
6215;SDS011;3141;49.234;9.326;2024-01-27T03:51:01;11.50;;;7.30;;
6215;SDS011;3141;49.234;9.326;2024-01-27T03:51:44;13.85;;;6.85;;
6215;SDS011;3141;49.234;9.326;2024-01-27T03:52:26;13.60;;;6.67;;
6215;SDS011;3141;49.234;9.326;2024-01-27T03:53:09;16.53;;;7.13;;
6215;SDS011;3141;49.234;9.326;2024-01-27T03:53:51;10.53;;;6.00;;
6215;SDS011;3141;49.234;9.326;2024-01-27T03:54:34;13.20;;;7.37;;
6215;SDS011;3141;49.234;9.326;2024-01-27T03:55:16;12.80;;;6.40;;
6215;SDS011;3141;49.234;9.326;2024-01-27T03:55:58;11.03;;;6.67;;
6215;SDS011;3141;49.234;9.326;2024-01-27T03:56:43;11.52;;;7.20;;
6215;SDS011;3141;49.234;9.326;2024-01-27T03:57:26;16.37;;;6.93;;
6215;SDS011;3141;49.234;9.326;2024-01-27T03:58:08;9.97;;;6.93;;
6215;SDS011;3141;49.234;9.326;2024-01-27T03:58:50;11.27;;;6.23;;
6215;SDS011;3141;49.234;9.326;2024-01-27T03:59:33;14.97;;;7.07;;
6215;SDS011;3141;49.234;9.326;2024-01-27T04:00:15;9.93;;;6.20;;
6215;SDS011;3141;49.234;9.326;2024-01-27T04:00:58;16.27;;;6.77;;
6215;SDS011;3141;49.234;9.326;2024-01-27T04:01:41;13.70;;;7.63;;
6215;SDS011;3141;49.234;9.326;2024-01-27T04:02:23;11.30;;;6.63;;
6215;SDS011;3141;49.234;9.326;2024-01-27T04:03:05;9.00;;;6.53;;
6215;SDS011;3141;49.234;9.326;2024-01-27T04:03:48;15.27;;;6.97;;
6215;SDS011;3141;49.234;9.326;2024-01-27T04:04:30;12.30;;;6.73;;
6215;SDS011;3141;49.234;9.326;2024-01-27T04:05:12;12.10;;;7.43;;
6215;SDS011;3141;49.234;9.326;2024-01-27T04:05:55;14.60;;;7.20;;
6215;SDS011;3141;49.234;9.326;2024-01-27T04:06:37;17.40;;;7.40;;
6215;SDS011;3141;49.234;9.326;2024-01-27T04:07:22;11.10;;;6.50;;
6215;SDS011;3141;49.234;9.326;2024-01-27T04:08:05;12.97;;;7.00;;
6215;SDS011;3141;49.234;9.326;2024-01-27T04:08:48;11.27;;;6.68;;
6215;SDS011;3141;49.234;9.326;2024-01-27T04:09:30;9.47;;;6.40;;
6215;SDS011;3141;49.234;9.326;2024-01-27T04:10:13;14.97;;;7.00;;
6215;SDS011;3141;49.234;9.326;2024-01-27T04:10:55;10.93;;;6.77;;
6215;SDS011;3141;49.234;9.326;2024-01-27T04:11:37;13.20;;;6.67;;
6215;SDS011;3141;49.234;9.326;2024-01-27T04:12:20;16.02;;;7.43;;
6215;SDS011;3141;49.234;9.326;2024-01-27T04:13:03;15.93;;;7.07;;
6215;SDS011;3141;49.234;9.326;2024-01-27T04:13:45;16.43;;;7.07;;
6215;SDS011;3141;49.234;9.326;2024-01-27T04:14:27;18.17;;;7.80;;
6215;SDS011;3141;49.234;9.326;2024-01-27T04:15:10;12.50;;;7.07;;
6215;SDS011;3141;49.234;9.326;2024-01-27T04:15:52;15.20;;;7.33;;
6215;SDS011;3141;49.234;9.326;2024-01-27T04:16:35;12.73;;;6.70;;
6215;SDS011;3141;49.234;9.326;2024-01-27T04:17:18;7.97;;;5.57;;
6215;SDS011;3141;49.234;9.326;2024-01-27T04:18:00;13.00;;;6.90;;
6215;SDS011;3141;49.234;9.326;2024-01-27T04:18:42;12.83;;;6.97;;
6215;SDS011;3141;49.234;9.326;2024-01-27T04:19:25;13.67;;;6.97;;
6215;SDS011;3141;49.234;9.326;2024-01-27T04:20:07;10.87;;;6.37;;
6215;SDS011;3141;49.234;9.326;2024-01-27T04:20:50;10.90;;;7.07;;